Time;durP1;ratioP1;P1;durP2;ratioP2;P2;SDS_P1;SDS_P2;PMS_P1;PMS_P2;Temp;Humidity;BMP_temperature;BMP_pressure;BME280_temperature;BME280_humidity;BME280_pressure;Samples;Min_cycle;Max_cycle;Signal;HPM_P1;HPM_P2
2024/04/08 00:01:08;;;;;;;0.80;0.40;;;14.40;80.10;;;;;;5018408;28;20053;-80
2024/04/08 00:03:34;;;;;;;0.40;0.40;;;14.40;80.20;;;;;;5034647;28;20483;-80
2024/04/08 00:06:00;;;;;;;1.38;0.40;;;14.40;80.30;;;;;;5034329;28;20048;-80
2024/04/08 00:08:25;;;;;;;0.47;0.47;;;14.40;80.30;;;;;;5017691;28;20037;-80
2024/04/08 00:10:51;;;;;;;0.30;0.30;;;14.40;80.40;;;;;;5082490;28;20054;-80
2024/04/08 00:13:17;;;;;;;0.30;0.30;;;14.40;80.40;;;;;;5094024;28;20059;-80
2024/04/08 00:15:42;;;;;;;0.50;0.40;;;14.40;80.50;;;;;;5078822;28;20050;-79
2024/04/08 00:18:08;;;;;;;0.32;0.32;;;14.40;80.60;;;;;;5095303;28;20548;-80
2024/04/08 00:20:34;;;;;;;0.57;0.43;;;14.30;80.60;;;;;;5078812;28;20378;-80
2024/04/08 00:23:01;;;;;;;0.45;0.30;;;14.30;80.70;;;;;;5095376;28;20036;-80
2024/04/08 00:25:27;;;;;;;0.40;0.40;;;14.30;80.80;;;;;;5079078;28;20040;-80
2024/04/08 00:27:53;;;;;;;0.43;0.40;;;14.20;80.90;;;;;;5078421;28;20046;-80
2024/04/08 00:30:18;;;;;;;0.32;0.28;;;14.30;81.10;;;;;;5078484;28;20049;-79
2024/04/08 00:32:44;;;;;;;0.40;0.40;;;14.20;81.10;;;;;;5113501;28;20042;-79
2024/04/08 00:35:10;;;;;;;0.50;0.50;;;14.20;81.20;;;;;;5078178;28;20035;-78
2024/04/08 00:37:36;;;;;;;1.17;0.47;;;14.10;81.30;;;;;;5078476;28;20050;-78
2024/04/08 00:40:01;;;;;;;0.60;0.50;;;14.10;81.40;;;;;;5078576;28;20047;-79
2024/04/08 00:42:27;;;;;;;0.80;0.43;;;14.10;81.50;;;;;;5106019;28;20019;-79
2024/04/08 00:44:53;;;;;;;0.88;0.50;;;14.10;81.50;;;;;;5082570;28;20045;-79
2024/04/08 00:47:18;;;;;;;0.38;0.38;;;14.10;81.60;;;;;;5091113;28;20111;-80
2024/04/08 00:49:46;;;;;;;0.43;0.30;;;14.00;81.60;;;;;;5126333;28;20042;-80
2024/04/08 00:52:13;;;;;;;0.30;0.30;;;14.00;81.70;;;;;;5090718;28;20108;-80
2024/04/08 00:54:42;;;;;;;0.40;0.40;;;14.00;81.70;;;;;;5107491;28;20051;-79
2024/04/08 00:57:12;;;;;;;0.50;0.50;;;14.00;81.80;;;;;;5092397;28;20052;-79
2024/04/08 00:59:38;;;;;;;0.40;0.40;;;14.00;81.90;;;;;;5103293;28;20036;-79
2024/04/08 01:02:04;;;;;;;0.40;0.40;;;13.90;82.00;;;;;;5127107;28;20103;-78
2024/04/08 01:04:32;;;;;;;0.80;0.40;;;13.90;82.00;;;;;;5095263;28;20123;-78
2024/04/08 01:06:58;;;;;;;0.47;0.40;;;13.90;82.00;;;;;;5079707;28;20106;-78
2024/04/08 01:09:25;;;;;;;0.40;0.40;;;13.80;82.00;;;;;;5097479;28;20047;-79
2024/04/08 01:11:50;;;;;;;1.63;0.50;;;13.90;82.20;;;;;;5077700;28;20058;-79
2024/04/08 01:14:16;;;;;;;0.20;0.20;;;13.80;82.20;;;;;;5077585;28;20473;-79
2024/04/08 01:16:42;;;;;;;0.40;0.30;;;13.90;82.30;;;;;;5094998;28;20038;-79
2024/04/08 01:19:07;;;;;;;0.60;0.40;;;13.80;82.30;;;;;;5077882;28;20040;-79
2024/04/08 01:21:33;;;;;;;0.40;0.40;;;13.80;82.30;;;;;;5094620;28;20472;-79
2024/04/08 01:24:00;;;;;;;1.05;0.50;;;13.80;82.40;;;;;;5077564;28;20116;-79
2024/04/08 01:26:26;;;;;;;0.50;0.30;;;13.80;82.40;;;;;;5094814;28;20389;-79
2024/04/08 01:28:51;;;;;;;0.50;0.38;;;13.80;82.50;;;;;;5112297;28;20046;-79
2024/04/08 01:31:17;;;;;;;0.82;0.50;;;13.80;82.60;;;;;;5094126;28;20043;-80
2024/04/08 01:33:43;;;;;;;0.60;0.30;;;13.70;82.50;;;;;;5060721;28;20043;-79
2024/04/08 01:36:11;;;;;;;0.40;0.40;;;13.80;82.70;;;;;;5112544;28;20485;-80
2024/04/08 01:38:40;;;;;;;0.30;0.30;;;13.80;82.70;;;;;;5094993;28;20043;-79
2024/04/08 01:41:07;;;;;;;0.30;0.30;;;13.80;82.70;;;;;;5077461;28;20083;-80
2024/04/08 01:43:33;;;;;;;0.30;0.30;;;13.70;82.60;;;;;;5112258;28;20089;-80
2024/04/08 01:45:59;;;;;;;0.68;0.30;;;13.80;82.70;;;;;;5077843;28;20397;-79
2024/04/08 01:48:25;;;;;;;0.30;0.30;;;13.80;82.70;;;;;;5094501;28;20040;-79
2024/04/08 01:50:50;;;;;;;0.30;0.30;;;13.80;82.70;;;;;;5094069;28;21037;-79
2024/04/08 01:53:16;;;;;;;0.30;0.30;;;13.80;82.70;;;;;;5094066;28;20047;-79
2024/04/08 01:55:42;;;;;;;0.30;0.30;;;13.80;82.70;;;;;;5094392;28;20432;-79
2024/04/08 01:58:07;;;;;;;0.45;0.40;;;13.80;82.80;;;;;;5064130;28;20493;-79
2024/04/08 02:00:33;;;;;;;0.20;0.20;;;13.70;82.90;;;;;;5115890;28;20077;-79
2024/04/08 02:02:59;;;;;;;0.30;0.30;;;13.80;82.90;;;;;;5116617;28;20044;-79
2024/04/08 02:05:25;;;;;;;0.45;0.45;;;13.80;82.90;;;;;;5080637;28;20036;-80
2024/04/08 02:07:50;;;;;;;0.38;0.38;;;13.70;82.90;;;;;;5064014;28;20032;-80
2024/04/08 02:10:19;;;;;;;0.98;0.40;;;13.70;82.90;;;;;;5064130;28;20039;-80
2024/04/08 02:12:46;;;;;;;0.90;0.47;;;13.80;83.10;;;;;;5097890;28;20036;-79
2024/04/08 02:15:12;;;;;;;0.50;0.50;;;13.70;83.10;;;;;;5097252;28;20036;-79
2024/04/08 02:17:38;;;;;;;0.40;0.40;;;13.80;83.10;;;;;;5080788;28;20050;-80
2024/04/08 02:20:06;;;;;;;0.40;0.40;;;13.70;83.10;;;;;;5080541;28;20036;-80
2024/04/08 02:22:32;;;;;;;0.30;0.30;;;13.70;83.20;;;;;;5097845;28;20035;-80
2024/04/08 02:24:58;;;;;;;0.75;0.40;;;13.70;83.20;;;;;;5115522;28;20047;-79
2024/04/08 02:27:24;;;;;;;0.30;0.30;;;13.70;83.20;;;;;;5080821;28;20040;-80
2024/04/08 02:29:51;;;;;;;0.30;0.30;;;13.70;83.30;;;;;;5064079;28;20421;-79
2024/04/08 02:32:16;;;;;;;0.50;0.30;;;13.70;83.30;;;;;;5097740;28;20384;-80
2024/04/08 02:34:42;;;;;;;0.30;0.30;;;13.70;83.40;;;;;;5115296;28;20144;-80
2024/04/08 02:37:08;;;;;;;0.73;0.30;;;13.70;83.40;;;;;;5080362;28;20234;-80
2024/04/08 02:39:33;;;;;;;0.40;0.40;;;13.60;83.40;;;;;;5080418;28;20028;-79
2024/04/08 02:42:05;;;;;;;0.32;0.32;;;13.70;83.50;;;;;;5080731;28;20485;-80
2024/04/08 02:44:30;;;;;;;;;;;13.60;83.50;;;;;;5098194;28;20027;-80
2024/04/08 02:46:56;;;;;;;0.20;0.20;;;13.60;83.50;;;;;;5096863;28;19919;-80
2024/04/08 02:49:22;;;;;;;0.10;0.10;;;13.70;83.50;;;;;;5080046;28;20032;-80
2024/04/08 02:51:47;;;;;;;0.20;0.20;;;13.60;83.50;;;;;;5063458;28;20533;-80
2024/04/08 02:54:13;;;;;;;0.70;0.40;;;13.60;83.60;;;;;;5097428;28;20044;-80
2024/04/08 02:56:39;;;;;;;0.40;0.40;;;13.60;83.60;;;;;;5097680;28;20040;-79
2024/04/08 02:59:05;;;;;;;0.30;0.30;;;13.60;83.60;;;;;;5064569;28;20032;-79
2024/04/08 03:01:31;;;;;;;0.25;0.25;;;13.50;83.60;;;;;;5096881;28;20047;-80
2024/04/08 03:03:56;;;;;;;0.38;0.30;;;13.60;83.70;;;;;;5080024;28;20115;-79
2024/04/08 03:06:22;;;;;;;0.30;0.30;;;13.60;83.70;;;;;;5096506;28;20036;-79
2024/04/08 03:08:48;;;;;;;0.50;0.50;;;13.60;83.70;;;;;;5096702;28;20409;-79
2024/04/08 03:11:14;;;;;;;0.30;0.30;;;13.60;83.80;;;;;;5115192;28;20063;-79
2024/04/08 03:13:40;;;;;;;0.35;0.35;;;13.60;83.80;;;;;;5097168;28;20520;-79
2024/04/08 03:16:06;;;;;;;0.30;0.30;;;13.60;83.80;;;;;;5115104;28;20035;-79
2024/04/08 03:18:32;;;;;;;0.30;0.30;;;13.60;83.80;;;;;;5096671;28;20500;-80
2024/04/08 03:21:03;;;;;;;0.40;0.40;;;13.60;83.90;;;;;;5115111;28;20134;-79
2024/04/08 03:23:30;;;;;;;0.30;0.30;;;13.60;83.90;;;;;;5079629;28;20043;-79
2024/04/08 03:26:00;;;;;;;0.82;0.40;;;13.60;83.90;;;;;;5079574;28;20068;-79
2024/04/08 03:28:26;;;;;;;0.30;0.30;;;13.60;84.00;;;;;;5096351;28;20043;-79
2024/04/08 03:30:52;;;;;;;0.38;0.30;;;13.60;84.00;;;;;;5114457;28;20123;-80
2024/04/08 03:33:22;;;;;;;0.40;0.40;;;13.60;84.10;;;;;;5080854;28;20589;-79
2024/04/08 03:35:48;;;;;;;0.63;0.50;;;13.60;84.10;;;;;;5114550;28;20551;-79
2024/04/08 03:38:15;;;;;;;0.68;0.43;;;13.60;84.20;;;;;;5096561;28;20051;-80
2024/04/08 03:40:43;;;;;;;0.45;0.45;;;13.50;84.10;;;;;;5096055;28;20055;-80
2024/04/08 03:43:09;;;;;;;0.40;0.40;;;13.60;84.30;;;;;;5094506;28;20044;-80
2024/04/08 03:45:37;;;;;;;0.50;0.40;;;13.50;84.30;;;;;;5096148;28;20394;-80
2024/04/08 03:48:03;;;;;;;1.27;0.50;;;13.50;84.30;;;;;;5096310;28;20118;-81
2024/04/08 03:50:30;;;;;;;0.63;0.30;;;13.50;84.30;;;;;;5095756;28;20047;-81
2024/04/08 03:52:55;;;;;;;0.30;0.30;;;13.50;84.30;;;;;;5095979;28;20123;-81
2024/04/08 03:55:23;;;;;;;0.43;0.43;;;13.50;84.30;;;;;;5095689;28;20071;-81
2024/04/08 03:57:49;;;;;;;0.40;0.40;;;13.60;84.40;;;;;;5096257;28;20051;-82
2024/04/08 04:00:15;;;;;;;0.50;0.40;;;13.60;84.50;;;;;;5078848;28;20416;-81
2024/04/08 04:02:41;;;;;;;0.43;0.40;;;13.50;84.40;;;;;;5096019;28;20031;-81
2024/04/08 04:05:07;;;;;;;0.40;0.40;;;13.50;84.50;;;;;;5095802;28;20032;-80
2024/04/08 04:07:32;;;;;;;0.85;0.50;;;13.50;84.50;;;;;;5078836;28;20392;-81
2024/04/08 04:10:04;;;;;;;0.68;0.30;;;13.50;84.60;;;;;;5095795;28;20489;-80
2024/04/08 04:12:33;;;;;;;0.85;0.40;;;13.50;84.60;;;;;;5095688;28;20036;-81
2024/04/08 04:15:00;;;;;;;0.40;0.40;;;13.60;84.70;;;;;;5078883;28;20039;-80
2024/04/08 04:17:26;;;;;;;0.25;0.25;;;13.50;84.60;;;;;;5078904;28;20044;-81
2024/04/08 04:19:52;;;;;;;0.40;0.40;;;13.50;84.60;;;;;;5094808;28;20036;-80
2024/04/08 04:22:17;;;;;;;0.52;0.40;;;13.60;84.60;;;;;;5095770;28;20414;-81
2024/04/08 04:24:43;;;;;;;0.40;0.40;;;13.50;84.60;;;;;;5096186;28;20046;-80
2024/04/08 04:27:09;;;;;;;0.40;0.40;;;13.50;84.60;;;;;;5114166;28;20059;-80
2024/04/08 04:29:36;;;;;;;0.95;0.40;;;13.50;84.70;;;;;;5095444;28;20047;-80
2024/04/08 04:32:01;;;;;;;0.30;0.30;;;13.50;84.70;;;;;;5078637;28;20397;-80
2024/04/08 04:34:27;;;;;;;0.35;0.35;;;13.50;84.80;;;;;;5078671;28;20050;-80
2024/04/08 04:36:53;;;;;;;0.40;0.40;;;13.60;84.90;;;;;;5095356;28;20086;-80
2024/04/08 04:39:18;;;;;;;0.43;0.30;;;13.60;84.90;;;;;;5078765;28;20620;-80
2024/04/08 04:41:44;;;;;;;0.73;0.40;;;13.50;84.90;;;;;;5078383;28;20063;-80
2024/04/08 04:44:10;;;;;;;0.77;0.45;;;13.40;84.90;;;;;;5095291;28;20075;-81
2024/04/08 04:46:36;;;;;;;0.40;0.40;;;13.50;85.60;;;;;;5061659;28;20043;-80
2024/04/08 04:49:01;;;;;;;0.40;0.40;;;13.40;84.90;;;;;;5095182;28;20122;-80
2024/04/08 04:51:27;;;;;;;0.40;0.40;;;13.50;85.00;;;;;;5078422;28;20039;-81
2024/04/08 04:53:53;;;;;;;0.80;0.50;;;13.50;85.10;;;;;;5113984;28;20043;-80
2024/04/08 04:56:19;;;;;;;0.38;0.38;;;13.40;85.10;;;;;;5095436;28;20043;-81
2024/04/08 04:58:45;;;;;;;0.30;0.30;;;13.50;85.20;;;;;;5092998;28;20522;-80
2024/04/08 05:01:10;;;;;;;0.30;0.30;;;13.40;85.20;;;;;;5077790;28;20059;-81
2024/04/08 05:03:36;;;;;;;0.30;0.30;;;13.50;85.30;;;;;;5061233;28;20053;-81
2024/04/08 05:06:02;;;;;;;0.30;0.30;;;13.30;85.30;;;;;;5095594;28;20073;-80
2024/04/08 05:08:27;;;;;;;0.60;0.50;;;13.40;85.40;;;;;;5095110;28;20046;-79
2024/04/08 05:10:53;;;;;;;0.38;0.38;;;13.40;85.40;;;;;;5094916;28;20451;-80
2024/04/08 05:13:18;;;;;;;0.50;0.50;;;13.40;85.40;;;;;;5078023;28;20397;-79
2024/04/08 05:15:57;;;;;;;0.47;0.47;;;13.40;85.50;;;;;;5112849;28;20040;-79
2024/04/08 05:18:23;;;;;;;0.40;0.40;;;13.40;85.60;;;;;;5113185;28;20097;-79
2024/04/08 05:20:50;;;;;;;0.50;0.40;;;13.40;85.40;;;;;;5077939;28;20536;-79
2024/04/08 05:23:16;;;;;;;0.43;0.43;;;13.50;85.50;;;;;;5078247;28;20031;-79
2024/04/08 05:25:42;;;;;;;0.43;0.40;;;13.40;85.50;;;;;;5077722;28;20043;-79
2024/04/08 05:28:07;;;;;;;0.50;0.50;;;13.40;85.40;;;;;;5078058;28;20397;-79
2024/04/08 05:30:33;;;;;;;0.40;0.40;;;13.50;85.50;;;;;;5093610;28;20246;-79
2024/04/08 05:33:01;;;;;;;0.93;0.50;;;13.50;85.40;;;;;;5094813;28;20492;-80
2024/04/08 05:35:27;;;;;;;0.30;0.30;;;13.50;86.00;;;;;;5094797;28;20048;-79
2024/04/08 05:37:52;;;;;;;0.50;0.43;;;13.50;85.40;;;;;;5094612;28;20088;-79
2024/04/08 05:40:18;;;;;;;0.82;0.60;;;13.50;85.40;;;;;;5061065;28;20071;-79
2024/04/08 05:42:45;;;;;;;0.52;0.52;;;13.50;85.50;;;;;;5077596;28;20051;-79
2024/04/08 05:45:11;;;;;;;0.50;0.50;;;13.40;85.60;;;;;;5113258;28;20031;-79
2024/04/08 05:47:38;;;;;;;0.32;0.32;;;13.50;85.60;;;;;;5077833;28;20122;-80
2024/04/08 05:50:04;;;;;;;0.50;0.50;;;13.40;85.70;;;;;;5094713;28;20043;-80
2024/04/08 05:52:32;;;;;;;0.40;0.40;;;13.50;85.80;;;;;;5077526;28;20040;-79
2024/04/08 05:54:58;;;;;;;2.13;0.47;;;13.50;85.70;;;;;;5094331;28;20047;-79
2024/04/08 05:57:25;;;;;;;0.50;0.50;;;13.50;85.70;;;;;;5094369;28;20038;-79
2024/04/08 05:59:51;;;;;;;0.47;0.43;;;13.50;85.80;;;;;;5094329;28;20085;-79
2024/04/08 06:02:16;;;;;;;0.68;0.35;;;13.50;85.80;;;;;;5094118;28;20439;-79
2024/04/08 06:04:43;;;;;;;0.30;0.30;;;13.50;85.80;;;;;;5112744;28;20035;-80
2024/04/08 06:07:08;;;;;;;0.30;0.30;;;13.60;85.90;;;;;;5112413;28;20036;-79
2024/04/08 06:09:35;;;;;;;0.30;0.30;;;13.50;85.80;;;;;;5095147;28;20092;-78
2024/04/08 06:12:01;;;;;;;0.75;0.40;;;13.60;85.90;;;;;;5113289;28;20040;-79
2024/04/08 06:14:27;;;;;;;0.40;0.40;;;13.60;85.90;;;;;;5078410;28;20051;-79
2024/04/08 06:16:52;;;;;;;0.40;0.40;;;13.60;85.90;;;;;;5077525;28;20044;-79
2024/04/08 06:19:18;;;;;;;0.47;0.47;;;13.60;85.90;;;;;;5078433;28;20081;-79
2024/04/08 06:21:44;;;;;;;0.30;0.30;;;13.60;85.90;;;;;;5097152;28;20504;-80
2024/04/08 06:24:10;;;;;;;0.40;0.30;;;13.60;85.90;;;;;;5097638;28;20043;-79
2024/04/08 06:26:36;;;;;;;0.30;0.30;;;13.70;86.00;;;;;;5097978;28;20134;-79
2024/04/08 06:29:02;;;;;;;0.85;0.50;;;13.70;85.90;;;;;;5096379;28;20116;-80
2024/04/08 06:31:29;;;;;;;0.30;0.30;;;13.70;85.90;;;;;;5094227;28;20040;-74
2024/04/08 06:33:57;;;;;;;0.73;0.40;;;13.70;85.80;;;;;;5093909;28;20039;-74
2024/04/08 06:36:23;;;;;;;0.30;0.30;;;13.80;85.80;;;;;;5060384;28;20039;-75
2024/04/08 06:38:49;;;;;;;0.30;0.30;;;13.90;85.70;;;;;;5112243;28;20051;-75
2024/04/08 06:41:16;;;;;;;0.40;0.40;;;13.90;85.60;;;;;;5093409;28;20131;-75
2024/04/08 06:43:42;;;;;;;0.35;0.35;;;13.90;85.60;;;;;;5097351;28;20077;-75
2024/04/08 06:46:08;;;;;;;0.32;0.32;;;14.10;85.70;;;;;;5097118;28;20059;-74
2024/04/08 06:48:34;;;;;;;0.40;0.40;;;14.10;85.60;;;;;;5097538;28;20078;-74
2024/04/08 06:51:00;;;;;;;0.75;0.50;;;14.10;85.50;;;;;;5096990;28;20043;-74
2024/04/08 06:53:25;;;;;;;0.90;0.60;;;14.30;85.40;;;;;;5097589;28;20468;-74
2024/04/08 06:55:51;;;;;;;1.20;0.65;;;14.30;85.30;;;;;;5115147;28;20036;-74
2024/04/08 06:58:19;;;;;;;0.43;0.43;;;14.20;85.10;;;;;;5096823;28;20039;-74
2024/04/08 07:00:47;;;;;;;0.52;0.52;;;14.40;85.10;;;;;;5115171;28;20044;-74
2024/04/08 07:03:13;;;;;;;0.82;0.70;;;14.40;85.00;;;;;;5080433;28;20039;-73
2024/04/08 07:05:40;;;;;;;0.70;0.47;;;14.40;84.90;;;;;;5115490;28;20035;-74
2024/04/08 07:08:05;;;;;;;0.68;0.52;;;14.50;85.20;;;;;;5079710;28;20505;-74
2024/04/08 07:10:31;;;;;;;0.80;0.73;;;14.40;85.10;;;;;;5096932;28;20047;-74
2024/04/08 07:12:57;;;;;;;0.60;0.60;;;14.50;85.20;;;;;;5114588;28;20126;-73
2024/04/08 07:15:23;;;;;;;0.60;0.60;;;14.40;85.30;;;;;;5114499;28;20051;-73
2024/04/08 07:17:49;;;;;;;0.75;0.70;;;14.40;85.30;;;;;;5062889;28;20042;-73
2024/04/08 07:20:14;;;;;;;0.65;0.60;;;14.40;85.40;;;;;;5096285;28;20039;-75
2024/04/08 07:22:41;;;;;;;0.95;0.57;;;14.50;85.50;;;;;;5080201;28;20101;-74
2024/04/08 07:25:08;;;;;;;0.70;0.70;;;14.40;85.40;;;;;;5096646;28;20040;-75
2024/04/08 07:27:35;;;;;;;1.80;0.70;;;14.60;85.60;;;;;;5079357;28;20119;-74
2024/04/08 07:30:03;;;;;;;0.73;0.47;;;14.50;85.60;;;;;;5114438;28;20039;-74
2024/04/08 07:32:29;;;;;;;0.90;0.60;;;14.50;85.60;;;;;;5114623;28;20035;-74
2024/04/08 07:34:55;;;;;;;0.65;0.55;;;14.60;85.60;;;;;;5115066;28;20122;-75
2024/04/08 07:37:21;;;;;;;0.30;0.30;;;14.70;85.60;;;;;;5096281;28;20437;-74
2024/04/08 07:39:48;;;;;;;0.52;0.50;;;14.70;85.50;;;;;;5096746;28;20086;-74
2024/04/08 07:42:13;;;;;;;1.33;0.40;;;14.80;85.30;;;;;;5096301;28;20443;-75
2024/04/08 07:44:39;;;;;;;0.77;0.50;;;14.90;85.30;;;;;;5096480;28;20035;-75
2024/04/08 07:47:05;;;;;;;0.45;0.40;;;15.00;85.10;;;;;;5096402;28;20133;-74
2024/04/08 07:49:31;;;;;;;0.60;0.40;;;15.10;85.00;;;;;;5096351;28;20051;-76
2024/04/08 07:51:57;;;;;;;1.40;0.40;;;15.00;84.90;;;;;;5096169;28;20067;-75
2024/04/08 07:54:27;;;;;;;0.70;0.47;;;15.20;85.00;;;;;;5113062;28;20059;-76
2024/04/08 07:56:52;;;;;;;0.60;0.60;;;15.20;84.80;;;;;;5096913;28;20079;-76
2024/04/08 07:59:18;;;;;;;0.70;0.68;;;15.40;84.70;;;;;;5096533;28;20126;-75
2024/04/08 08:01:44;;;;;;;0.50;0.50;;;15.40;84.50;;;;;;5096242;28;20035;-77
2024/04/08 08:04:10;;;;;;;0.73;0.52;;;15.50;84.50;;;;;;5095856;28;20039;-75
2024/04/08 08:06:36;;;;;;;0.73;0.68;;;15.60;84.40;;;;;;5095970;28;20035;-74
2024/04/08 08:09:03;;;;;;;0.75;0.70;;;15.60;84.40;;;;;;5113817;28;20035;-75
2024/04/08 08:11:28;;;;;;;1.10;0.93;;;15.60;84.20;;;;;;5078836;28;20043;-75
2024/04/08 08:13:54;;;;;;;1.35;0.50;;;15.60;84.40;;;;;;5114453;28;20481;-75
2024/04/08 08:16:19;;;;;;;0.52;0.52;;;15.60;84.60;;;;;;5095786;28;20089;-75
2024/04/08 08:18:45;;;;;;;0.60;0.55;;;15.70;84.80;;;;;;5095490;28;20534;-76
2024/04/08 08:21:11;;;;;;;0.98;0.60;;;15.80;84.60;;;;;;5095889;28;20046;-75
2024/04/08 08:23:37;;;;;;;0.77;0.55;;;15.90;84.40;;;;;;5078368;28;20039;-76
2024/04/08 08:26:02;;;;;;;0.40;0.40;;;16.10;84.10;;;;;;5095490;28;20374;-75
2024/04/08 08:28:28;;;;;;;0.98;0.55;;;16.40;84.00;;;;;;5113743;28;20507;-75
2024/04/08 08:30:54;;;;;;;0.95;0.60;;;16.50;83.60;;;;;;5113902;28;20043;-75
2024/04/08 08:33:21;;;;;;;0.40;0.40;;;16.80;83.20;;;;;;5095498;28;20059;-75
2024/04/08 08:35:47;;;;;;;1.00;0.60;;;17.00;82.90;;;;;;5095369;28;20035;-75
2024/04/08 08:38:13;;;;;;;1.27;0.52;;;17.10;82.50;;;;;;5078633;28;20058;-75
2024/04/08 08:40:44;;;;;;;0.65;0.65;;;17.20;82.30;;;;;;5113400;28;20048;-75
2024/04/08 08:43:11;;;;;;;1.15;0.75;;;17.40;82.10;;;;;;5078258;28;20070;-75
2024/04/08 08:45:41;;;;;;;0.57;0.50;;;17.50;82.50;;;;;;5095073;28;20048;-75
2024/04/08 08:48:08;;;;;;;1.63;0.55;;;17.60;81.70;;;;;;5114139;28;20039;-76
2024/04/08 08:50:36;;;;;;;0.68;0.50;;;17.70;81.60;;;;;;5078360;28;20087;-76
2024/04/08 08:53:04;;;;;;;0.82;0.50;;;17.70;81.50;;;;;;5079187;28;20096;-76
2024/04/08 08:55:32;;;;;;;0.63;0.50;;;17.70;81.50;;;;;;5113545;28;20047;-76
2024/04/08 08:57:59;;;;;;;1.40;0.40;;;17.50;81.70;;;;;;5096637;28;20501;-76
2024/04/08 09:00:25;;;;;;;0.40;0.40;;;17.30;82.20;;;;;;5097565;28;20112;-76
2024/04/08 09:02:51;;;;;;;1.15;0.52;;;17.30;82.80;;;;;;5095995;28;20043;-75
2024/04/08 09:05:17;;;;;;;0.60;0.60;;;17.40;82.90;;;;;;5113196;28;20035;-75
2024/04/08 09:07:42;;;;;;;0.47;0.47;;;17.50;82.70;;;;;;5113157;28;20035;-75
2024/04/08 09:10:08;;;;;;;0.65;0.50;;;17.60;82.40;;;;;;5113644;28;20051;-75
2024/04/08 09:12:34;;;;;;;1.02;0.45;;;17.80;82.10;;;;;;5095370;28;20053;-75
2024/04/08 09:15:00;;;;;;;1.67;0.60;;;17.80;81.90;;;;;;5095530;28;20393;-76
2024/04/08 09:17:26;;;;;;;0.50;0.50;;;17.80;81.90;;;;;;5078602;28;20047;-76
2024/04/08 09:19:52;;;;;;;0.60;0.60;;;17.80;82.00;;;;;;5096067;28;20395;-76
2024/04/08 09:22:17;;;;;;;0.60;0.60;;;17.70;82.20;;;;;;5114465;28;20127;-75
2024/04/08 09:24:43;;;;;;;0.75;0.60;;;17.80;82.20;;;;;;5113894;28;20044;-75
2024/04/08 09:27:10;;;;;;;1.65;0.60;;;17.90;82.10;;;;;;5078299;28;20086;-76
2024/04/08 09:29:35;;;;;;;2.03;0.95;;;17.90;81.80;;;;;;5113287;28;20126;-76
2024/04/08 09:32:01;;;;;;;1.92;1.02;;;18.00;81.50;;;;;;5078349;28;20144;-76
2024/04/08 09:34:28;;;;;;;1.35;0.90;;;17.80;81.50;;;;;;5077930;28;20058;-75
2024/04/08 09:36:55;;;;;;;1.48;0.98;;;17.70;81.90;;;;;;5095351;28;20123;-77
2024/04/08 09:39:22;;;;;;;1.65;0.82;;;17.60;82.00;;;;;;5095826;28;20043;-76
2024/04/08 09:41:51;;;;;;;0.90;0.80;;;17.70;82.40;;;;;;5061567;28;20043;-74
2024/04/08 09:44:17;;;;;;;1.00;0.90;;;17.60;82.30;;;;;;5093016;28;20044;-74
2024/04/08 09:46:45;;;;;;;0.95;0.82;;;17.80;82.10;;;;;;5112493;28;20040;-74
2024/04/08 09:49:11;;;;;;;0.73;0.73;;;17.90;81.90;;;;;;5112407;28;20043;-74
2024/04/08 09:51:40;;;;;;;1.30;1.10;;;18.00;81.60;;;;;;5094359;28;20043;-74
2024/04/08 09:54:08;;;;;;;1.77;0.95;;;18.00;81.20;;;;;;5111134;28;20075;-74
2024/04/08 09:56:37;;;;;;;1.40;1.10;;;18.00;81.30;;;;;;5093787;28;20138;-75
2024/04/08 09:59:08;;;;;;;1.00;0.90;;;18.20;81.80;;;;;;5077523;28;20096;-74
2024/04/08 10:01:37;;;;;;;1.80;1.02;;;18.30;81.10;;;;;;5093702;28;20048;-74
2024/04/08 10:04:11;;;;;;;2.13;1.00;;;18.30;80.70;;;;;;5094132;28;20035;-75
2024/04/08 10:06:38;;;;;;;1.15;0.93;;;18.30;80.50;;;;;;5112375;28;20045;-75
2024/04/08 10:09:04;;;;;;;1.95;1.35;;;18.20;80.80;;;;;;5111958;28;20473;-74
2024/04/08 10:11:30;;;;;;;1.83;1.13;;;18.20;80.90;;;;;;5094379;28;20055;-75
2024/04/08 10:13:56;;;;;;;2.60;1.50;;;18.30;80.80;;;;;;5112052;28;20043;-73
2024/04/08 10:16:21;;;;;;;1.42;1.13;;;18.20;80.50;;;;;;5112005;28;20032;-74
2024/04/08 10:18:56;;;;;;;2.55;1.40;;;18.20;80.90;;;;;;5096639;28;20087;-76
2024/04/08 10:21:25;;;;;;;2.40;1.10;;;18.20;80.80;;;;;;5114069;28;20113;-75
2024/04/08 10:23:53;;;;;;;1.58;1.23;;;18.20;80.80;;;;;;5081380;28;20067;-75
2024/04/08 10:26:23;;;;;;;2.08;1.30;;;18.20;80.80;;;;;;5039742;28;20047;-77
2024/04/08 10:28:53;;;;;;;1.88;1.60;;;18.30;80.60;;;;;;5056059;28;20089;-74
2024/04/08 10:31:21;;;;;;;2.08;1.33;;;18.40;80.40;;;;;;5056327;28;20048;-75
2024/04/08 10:33:47;;;;;;;2.38;1.40;;;18.50;80.80;;;;;;5038694;28;20415;-74
2024/04/08 10:36:12;;;;;;;2.42;1.48;;;18.60;80.00;;;;;;5056603;28;20052;-74
2024/04/08 10:38:38;;;;;;;2.08;1.67;;;18.70;79.70;;;;;;5073473;28;20082;-73
2024/04/08 10:41:05;;;;;;;2.00;1.70;;;18.70;79.40;;;;;;5073217;28;20077;-74
2024/04/08 10:43:33;;;;;;;2.67;1.85;;;18.70;79.30;;;;;;5055858;28;20123;-75
2024/04/08 10:45:59;;;;;;;1.50;1.40;;;18.60;79.60;;;;;;5072666;28;20040;-74
2024/04/08 10:48:25;;;;;;;2.30;1.63;;;18.70;79.60;;;;;;5056072;28;20516;-74
2024/04/08 10:50:51;;;;;;;2.10;1.42;;;18.80;79.60;;;;;;5072455;28;20131;-74
2024/04/08 10:53:17;;;;;;;1.70;1.50;;;18.90;79.30;;;;;;5038996;28;20139;-74
2024/04/08 10:55:43;;;;;;;2.20;1.60;;;19.00;79.10;;;;;;5055678;28;20445;-74
2024/04/08 10:58:11;;;;;;;1.58;1.33;;;19.00;79.00;;;;;;5090871;28;20044;-74
2024/04/08 11:00:37;;;;;;;1.50;1.20;;;19.00;78.80;;;;;;5115416;28;20043;-73
2024/04/08 11:03:03;;;;;;;1.73;1.45;;;19.10;78.90;;;;;;5079988;28;20062;-75
2024/04/08 11:05:29;;;;;;;1.92;1.40;;;19.10;78.90;;;;;;5114849;28;20396;-75
2024/04/08 11:07:58;;;;;;;1.40;1.30;;;19.10;78.90;;;;;;5114853;28;20118;-74
2024/04/08 11:10:24;;;;;;;1.38;1.10;;;19.30;78.80;;;;;;5115228;28;20119;-74
2024/04/08 11:12:50;;;;;;;1.15;1.02;;;19.30;78.50;;;;;;5096480;28;20126;-75
2024/04/08 11:15:16;;;;;;;1.00;1.00;;;19.40;78.40;;;;;;5115198;28;20635;-75
2024/04/08 11:17:41;;;;;;;1.27;1.17;;;19.40;78.30;;;;;;5115066;28;20036;-76
2024/04/08 11:20:10;;;;;;;1.27;1.10;;;19.50;78.20;;;;;;5062691;28;20031;-75
2024/04/08 11:22:36;;;;;;;1.63;1.10;;;19.50;78.30;;;;;;5096290;28;20036;-75
2024/04/08 11:25:04;;;;;;;1.25;1.00;;;19.50;78.30;;;;;;5096674;28;20496;-76
2024/04/08 11:27:30;;;;;;;1.10;1.00;;;19.60;78.30;;;;;;5097262;28;20031;-75
2024/04/08 11:29:56;;;;;;;1.52;1.20;;;19.70;78.00;;;;;;5096200;28;20507;-76
2024/04/08 11:32:23;;;;;;;1.15;1.05;;;19.70;77.90;;;;;;5096712;28;20040;-75
2024/04/08 11:34:49;;;;;;;1.50;1.25;;;19.70;77.80;;;;;;5114096;28;20481;-76
2024/04/08 11:37:16;;;;;;;2.30;1.38;;;19.70;77.90;;;;;;5114310;28;20036;-75
2024/04/08 11:39:44;;;;;;;1.15;1.05;;;19.70;77.90;;;;;;5114866;28;20093;-76
2024/04/08 11:42:11;;;;;;;0.90;0.90;;;19.70;77.90;;;;;;5097017;28;20039;-75
2024/04/08 11:44:44;;;;;;;1.60;1.05;;;19.60;78.00;;;;;;5096148;28;20405;-75
2024/04/08 11:47:17;;;;;;;2.75;1.30;;;19.60;78.10;;;;;;5114793;28;20059;-75
2024/04/08 11:49:43;;;;;;;1.50;1.10;;;19.50;78.20;;;;;;5114145;28;20097;-76
2024/04/08 11:52:11;;;;;;;1.25;1.13;;;19.50;78.30;;;;;;5096014;28;20045;-75
2024/04/08 11:54:37;;;;;;;1.40;1.10;;;19.40;78.60;;;;;;5097052;28;20035;-76
2024/04/08 11:57:03;;;;;;;1.20;1.10;;;19.20;78.80;;;;;;5115242;28;20088;-75
2024/04/08 11:59:29;;;;;;;1.20;1.10;;;19.20;79.10;;;;;;5115164;28;20055;-76
2024/04/08 12:01:54;;;;;;;1.45;1.20;;;19.10;79.10;;;;;;5096660;28;20048;-74
2024/04/08 12:04:20;;;;;;;1.25;1.00;;;19.10;79.10;;;;;;5080377;28;20378;-75
2024/04/08 12:06:46;;;;;;;1.27;1.17;;;19.10;79.10;;;;;;5096433;28;20390;-76
2024/04/08 12:09:12;;;;;;;2.10;1.40;;;19.10;79.00;;;;;;5096543;28;20043;-75
2024/04/08 12:11:37;;;;;;;1.98;1.40;;;19.20;78.80;;;;;;5096211;28;20046;-75
2024/04/08 12:14:03;;;;;;;1.70;1.38;;;19.30;78.50;;;;;;5095900;28;20116;-76
2024/04/08 12:16:29;;;;;;;1.52;1.20;;;19.40;78.20;;;;;;5114304;28;20044;-75
2024/04/08 12:18:55;;;;;;;1.13;1.02;;;19.50;77.90;;;;;;5114491;28;20073;-76
2024/04/08 12:21:20;;;;;;;1.50;1.25;;;19.50;77.90;;;;;;5095849;28;20050;-76
2024/04/08 12:23:46;;;;;;;1.30;1.20;;;19.40;77.90;;;;;;5114095;28;20071;-76
2024/04/08 12:26:13;;;;;;;1.63;1.40;;;19.30;78.10;;;;;;5096160;28;20067;-74
2024/04/08 12:28:40;;;;;;;1.30;1.20;;;19.30;78.20;;;;;;5113424;28;20489;-75
2024/04/08 12:31:05;;;;;;;2.00;1.30;;;19.30;78.30;;;;;;5113597;28;20032;-76
2024/04/08 12:33:32;;;;;;;0.90;0.90;;;19.20;78.50;;;;;;5095438;28;20135;-76
2024/04/08 12:35:58;;;;;;;1.20;1.10;;;19.10;78.50;;;;;;5095596;28;20032;-76
2024/04/08 12:38:24;;;;;;;2.05;1.40;;;19.10;78.60;;;;;;5113678;28;20036;-75
2024/04/08 12:40:49;;;;;;;1.52;1.30;;;19.00;78.60;;;;;;5077869;28;20424;-75
2024/04/08 12:43:15;;;;;;;2.05;1.20;;;19.00;78.70;;;;;;5113755;28;20405;-75